sensor_id;sensor_type;location;lat;lon;timestamp;P1;durP1;ratioP1;P2;durP2;ratioP2
7545;SDS011;3814;51.454;12.616;2022-12-01T00:01:59;104.95;;;23.52;;
7545;SDS011;3814;51.454;12.616;2022-12-01T00:04:24;113.68;;;24.65;;
7545;SDS011;3814;51.454;12.616;2022-12-01T00:06:49;117.40;;;24.13;;
7545;SDS011;3814;51.454;12.616;2022-12-01T00:09:15;115.95;;;23.02;;
7545;SDS011;3814;51.454;12.616;2022-12-01T00:11:59;112.68;;;23.23;;
7545;SDS011;3814;51.454;12.616;2022-12-01T00:14:24;113.20;;;24.17;;
7545;SDS011;3814;51.454;12.616;2022-12-01T00:16:49;117.28;;;25.05;;
7545;SDS011;3814;51.454;12.616;2022-12-01T00:19:15;124.50;;;24.92;;
7545;SDS011;3814;51.454;12.616;2022-12-01T00:21:41;116.10;;;23.42;;
7545;SDS011;3814;51.454;12.616;2022-12-01T00:24:08;112.85;;;24.38;;
7545;SDS011;3814;51.454;12.616;2022-12-01T00:26:35;112.43;;;22.80;;
7545;SDS011;3814;51.454;12.616;2022-12-01T00:29:01;116.28;;;24.88;;
7545;SDS011;3814;51.454;12.616;2022-12-01T00:31:27;111.35;;;23.38;;
7545;SDS011;3814;51.454;12.616;2022-12-01T00:33:52;114.18;;;24.10;;
7545;SDS011;3814;51.454;12.616;2022-12-01T00:36:18;106.90;;;23.95;;
7545;SDS011;3814;51.454;12.616;2022-12-01T00:38:43;113.10;;;23.63;;
7545;SDS011;3814;51.454;12.616;2022-12-01T00:41:09;120.72;;;23.67;;
7545;SDS011;3814;51.454;12.616;2022-12-01T00:43:34;103.32;;;22.95;;
7545;SDS011;3814;51.454;12.616;2022-12-01T00:45:59;113.45;;;22.52;;
7545;SDS011;3814;51.454;12.616;2022-12-01T00:48:25;110.43;;;23.23;;
7545;SDS011;3814;51.454;12.616;2022-12-01T00:50:51;110.80;;;23.83;;
7545;SDS011;3814;51.454;12.616;2022-12-01T00:53:17;107.43;;;21.88;;
7545;SDS011;3814;51.454;12.616;2022-12-01T00:55:42;109.75;;;24.63;;
7545;SDS011;3814;51.454;12.616;2022-12-01T00:58:08;103.28;;;22.80;;
7545;SDS011;3814;51.454;12.616;2022-12-01T01:00:33;93.07;;;20.80;;
7545;SDS011;3814;51.454;12.616;2022-12-01T01:03:02;100.25;;;22.35;;
7545;SDS011;3814;51.454;12.616;2022-12-01T01:05:29;90.72;;;21.48;;
7545;SDS011;3814;51.454;12.616;2022-12-01T01:07:54;99.55;;;19.90;;
7545;SDS011;3814;51.454;12.616;2022-12-01T01:10:19;98.97;;;20.58;;
7545;SDS011;3814;51.454;12.616;2022-12-01T01:12:45;96.88;;;20.58;;
7545;SDS011;3814;51.454;12.616;2022-12-01T01:15:10;97.40;;;20.65;;
7545;SDS011;3814;51.454;12.616;2022-12-01T01:17:35;90.03;;;19.98;;
7545;SDS011;3814;51.454;12.616;2022-12-01T01:20:01;103.55;;;23.17;;
7545;SDS011;3814;51.454;12.616;2022-12-01T01:22:28;115.93;;;22.80;;
7545;SDS011;3814;51.454;12.616;2022-12-01T01:24:54;110.38;;;21.27;;
7545;SDS011;3814;51.454;12.616;2022-12-01T01:27:19;111.45;;;20.85;;
7545;SDS011;3814;51.454;12.616;2022-12-01T01:29:44;89.07;;;19.60;;
7545;SDS011;3814;51.454;12.616;2022-12-01T01:32:10;118.57;;;22.98;;
7545;SDS011;3814;51.454;12.616;2022-12-01T01:34:35;104.93;;;21.83;;
7545;SDS011;3814;51.454;12.616;2022-12-01T01:37:00;112.38;;;22.77;;
7545;SDS011;3814;51.454;12.616;2022-12-01T01:39:26;100.60;;;21.83;;
7545;SDS011;3814;51.454;12.616;2022-12-01T01:41:51;111.22;;;21.80;;
7545;SDS011;3814;51.454;12.616;2022-12-01T01:47:14;107.70;;;21.38;;
7545;SDS011;3814;51.454;12.616;2022-12-01T01:49:48;106.68;;;22.30;;
7545;SDS011;3814;51.454;12.616;2022-12-01T01:52:14;115.82;;;23.08;;
7545;SDS011;3814;51.454;12.616;2022-12-01T01:54:40;99.10;;;22.27;;
7545;SDS011;3814;51.454;12.616;2022-12-01T01:57:07;123.50;;;22.83;;
7545;SDS011;3814;51.454;12.616;2022-12-01T01:59:35;143.48;;;25.92;;
7545;SDS011;3814;51.454;12.616;2022-12-01T02:02:04;115.57;;;23.20;;
7545;SDS011;3814;51.454;12.616;2022-12-01T02:04:31;110.07;;;22.42;;
7545;SDS011;3814;51.454;12.616;2022-12-01T02:06:59;117.43;;;23.25;;
7545;SDS011;3814;51.454;12.616;2022-12-01T02:09:25;125.32;;;23.88;;
7545;SDS011;3814;51.454;12.616;2022-12-01T02:11:54;134.23;;;23.73;;
7545;SDS011;3814;51.454;12.616;2022-12-01T02:17:40;104.20;;;21.88;;
7545;SDS011;3814;51.454;12.616;2022-12-01T02:32:09;107.35;;;22.33;;
7545;SDS011;3814;51.454;12.616;2022-12-01T02:38:10;96.07;;;19.67;;
7545;SDS011;3814;51.454;12.616;2022-12-01T02:40:27;109.25;;;21.10;;
7545;SDS011;3814;51.454;12.616;2022-12-01T02:48:34;108.65;;;21.48;;
7545;SDS011;3814;51.454;12.616;2022-12-01T02:51:02;116.53;;;21.20;;
7545;SDS011;3814;51.454;12.616;2022-12-01T02:53:31;110.57;;;19.77;;
7545;SDS011;3814;51.454;12.616;2022-12-01T02:55:57;150.57;;;23.30;;
7545;SDS011;3814;51.454;12.616;2022-12-01T02:58:22;122.38;;;22.52;;
7545;SDS011;3814;51.454;12.616;2022-12-01T03:09:46;95.63;;;18.92;;
7545;SDS011;3814;51.454;12.616;2022-12-01T03:12:28;126.72;;;20.08;;
7545;SDS011;3814;51.454;12.616;2022-12-01T03:20:23;105.30;;;18.83;;
7545;SDS011;3814;51.454;12.616;2022-12-01T03:22:55;85.32;;;16.83;;
7545;SDS011;3814;51.454;12.616;2022-12-01T03:25:24;127.80;;;22.35;;
7545;SDS011;3814;51.454;12.616;2022-12-01T03:27:51;86.40;;;17.85;;
7545;SDS011;3814;51.454;12.616;2022-12-01T03:30:20;147.63;;;19.92;;
7545;SDS011;3814;51.454;12.616;2022-12-01T03:32:49;149.98;;;18.30;;
7545;SDS011;3814;51.454;12.616;2022-12-01T03:35:18;91.95;;;18.58;;
7545;SDS011;3814;51.454;12.616;2022-12-01T03:40:17;152.85;;;20.50;;
7545;SDS011;3814;51.454;12.616;2022-12-01T03:42:49;73.28;;;16.33;;
7545;SDS011;3814;51.454;12.616;2022-12-01T03:45:22;78.15;;;16.73;;
7545;SDS011;3814;51.454;12.616;2022-12-01T03:47:50;94.88;;;17.38;;
7545;SDS011;3814;51.454;12.616;2022-12-01T03:50:16;122.90;;;19.45;;
7545;SDS011;3814;51.454;12.616;2022-12-01T03:53:04;105.30;;;18.63;;
7545;SDS011;3814;51.454;12.616;2022-12-01T03:55:43;94.63;;;18.92;;
7545;SDS011;3814;51.454;12.616;2022-12-01T03:58:12;100.57;;;18.48;;
7545;SDS011;3814;51.454;12.616;2022-12-01T04:00:39;112.90;;;17.40;;
7545;SDS011;3814;51.454;12.616;2022-12-01T04:03:05;103.85;;;19.02;;
7545;SDS011;3814;51.454;12.616;2022-12-01T04:05:31;132.48;;;21.17;;
7545;SDS011;3814;51.454;12.616;2022-12-01T04:07:58;102.03;;;18.00;;
7545;SDS011;3814;51.454;12.616;2022-12-01T04:10:23;79.63;;;15.00;;
7545;SDS011;3814;51.454;12.616;2022-12-01T04:12:49;111.88;;;18.33;;
7545;SDS011;3814;51.454;12.616;2022-12-01T04:15:14;87.03;;;16.70;;
7545;SDS011;3814;51.454;12.616;2022-12-01T04:17:41;80.32;;;17.10;;
7545;SDS011;3814;51.454;12.616;2022-12-01T04:22:38;138.35;;;18.40;;
7545;SDS011;3814;51.454;12.616;2022-12-01T04:25:04;85.82;;;16.70;;
7545;SDS011;3814;51.454;12.616;2022-12-01T04:27:31;94.78;;;15.57;;
7545;SDS011;3814;51.454;12.616;2022-12-01T04:29:56;94.80;;;17.90;;
7545;SDS011;3814;51.454;12.616;2022-12-01T04:32:22;124.28;;;18.92;;
7545;SDS011;3814;51.454;12.616;2022-12-01T04:34:47;84.47;;;16.98;;
7545;SDS011;3814;51.454;12.616;2022-12-01T04:37:13;72.13;;;14.60;;
7545;SDS011;3814;51.454;12.616;2022-12-01T04:39:38;149.45;;;19.98;;
7545;SDS011;3814;51.454;12.616;2022-12-01T04:42:06;77.38;;;14.82;;
7545;SDS011;3814;51.454;12.616;2022-12-01T04:44:31;67.57;;;14.63;;
7545;SDS011;3814;51.454;12.616;2022-12-01T04:46:57;71.53;;;14.38;;
7545;SDS011;3814;51.454;12.616;2022-12-01T04:49:22;129.07;;;17.65;;
7545;SDS011;3814;51.454;12.616;2022-12-01T04:51:48;63.55;;;15.40;;
7545;SDS011;3814;51.454;12.616;2022-12-01T04:54:13;105.05;;;16.23;;
7545;SDS011;3814;51.454;12.616;2022-12-01T04:56:39;67.35;;;13.70;;
7545;SDS011;3814;51.454;12.616;2022-12-01T04:59:04;82.45;;;14.77;;
7545;SDS011;3814;51.454;12.616;2022-12-01T05:01:29;74.20;;;14.32;;
7545;SDS011;3814;51.454;12.616;2022-12-01T05:03:55;74.93;;;14.50;;
7545;SDS011;3814;51.454;12.616;2022-12-01T05:06:21;97.15;;;15.18;;
7545;SDS011;3814;51.454;12.616;2022-12-01T05:08:49;81.43;;;15.77;;
7545;SDS011;3814;51.454;12.616;2022-12-01T05:11:16;80.03;;;14.65;;
7545;SDS011;3814;51.454;12.616;2022-12-01T05:13:42;69.93;;;13.95;;
7545;SDS011;3814;51.454;12.616;2022-12-01T05:16:10;71.80;;;13.65;;
7545;SDS011;3814;51.454;12.616;2022-12-01T05:18:37;82.07;;;15.85;;
7545;SDS011;3814;51.454;12.616;2022-12-01T05:21:03;82.50;;;15.77;;
7545;SDS011;3814;51.454;12.616;2022-12-01T05:23:30;93.32;;;16.55;;
7545;SDS011;3814;51.454;12.616;2022-12-01T05:25:57;92.90;;;15.73;;
7545;SDS011;3814;51.454;12.616;2022-12-01T05:28:23;81.28;;;16.17;;
7545;SDS011;3814;51.454;12.616;2022-12-01T05:30:50;70.70;;;14.18;;
7545;SDS011;3814;51.454;12.616;2022-12-01T05:33:16;121.95;;;18.00;;
7545;SDS011;3814;51.454;12.616;2022-12-01T05:35:41;101.80;;;17.20;;
7545;SDS011;3814;51.454;12.616;2022-12-01T05:38:07;76.15;;;14.45;;
7545;SDS011;3814;51.454;12.616;2022-12-01T05:40:32;70.05;;;13.55;;
7545;SDS011;3814;51.454;12.616;2022-12-01T05:42:58;70.63;;;15.98;;
7545;SDS011;3814;51.454;12.616;2022-12-01T05:45:23;58.42;;;13.40;;
7545;SDS011;3814;51.454;12.616;2022-12-01T05:47:49;69.80;;;14.70;;
7545;SDS011;3814;51.454;12.616;2022-12-01T05:50:19;73.43;;;15.05;;
7545;SDS011;3814;51.454;12.616;2022-12-01T05:52:44;73.45;;;15.13;;
7545;SDS011;3814;51.454;12.616;2022-12-01T05:55:09;74.53;;;15.82;;
7545;SDS011;3814;51.454;12.616;2022-12-01T05:57:35;114.65;;;18.05;;
7545;SDS011;3814;51.454;12.616;2022-12-01T06:00:00;145.48;;;17.27;;
7545;SDS011;3814;51.454;12.616;2022-12-01T06:02:25;128.35;;;17.10;;
7545;SDS011;3814;51.454;12.616;2022-12-01T06:04:51;189.15;;;19.92;;
7545;SDS011;3814;51.454;12.616;2022-12-01T06:07:17;169.52;;;17.35;;
7545;SDS011;3814;51.454;12.616;2022-12-01T06:09:42;75.30;;;14.73;;
7545;SDS011;3814;51.454;12.616;2022-12-01T06:12:10;99.85;;;15.63;;
7545;SDS011;3814;51.454;12.616;2022-12-01T06:14:36;83.63;;;15.65;;
7545;SDS011;3814;51.454;12.616;2022-12-01T06:17:01;60.05;;;13.02;;
7545;SDS011;3814;51.454;12.616;2022-12-01T06:19:26;77.53;;;15.20;;
7545;SDS011;3814;51.454;12.616;2022-12-01T06:21:52;67.55;;;13.75;;
7545;SDS011;3814;51.454;12.616;2022-12-01T06:24:17;135.40;;;16.63;;
7545;SDS011;3814;51.454;12.616;2022-12-01T06:26:42;116.00;;;16.88;;
7545;SDS011;3814;51.454;12.616;2022-12-01T06:29:08;115.93;;;15.18;;
7545;SDS011;3814;51.454;12.616;2022-12-01T06:31:34;147.85;;;19.92;;
7545;SDS011;3814;51.454;12.616;2022-12-01T06:34:00;91.40;;;14.65;;
7545;SDS011;3814;51.454;12.616;2022-12-01T06:36:25;73.25;;;15.07;;
7545;SDS011;3814;51.454;12.616;2022-12-01T06:38:50;92.88;;;15.70;;
7545;SDS011;3814;51.454;12.616;2022-12-01T06:41:16;118.07;;;15.38;;
7545;SDS011;3814;51.454;12.616;2022-12-01T06:43:41;67.30;;;14.35;;
7545;SDS011;3814;51.454;12.616;2022-12-01T06:46:06;118.82;;;17.13;;
7545;SDS011;3814;51.454;12.616;2022-12-01T06:48:32;66.70;;;13.70;;
7545;SDS011;3814;51.454;12.616;2022-12-01T06:50:58;77.07;;;14.98;;
7545;SDS011;3814;51.454;12.616;2022-12-01T06:53:24;71.55;;;14.00;;
7545;SDS011;3814;51.454;12.616;2022-12-01T06:55:51;126.80;;;18.00;;
7545;SDS011;3814;51.454;12.616;2022-12-01T06:58:16;102.88;;;16.65;;
7545;SDS011;3814;51.454;12.616;2022-12-01T07:00:42;59.70;;;13.65;;
7545;SDS011;3814;51.454;12.616;2022-12-01T07:03:07;104.25;;;16.73;;
7545;SDS011;3814;51.454;12.616;2022-12-01T07:05:33;84.05;;;14.70;;
7545;SDS011;3814;51.454;12.616;2022-12-01T07:07:59;120.55;;;17.30;;
7545;SDS011;3814;51.454;12.616;2022-12-01T07:10:25;113.38;;;17.13;;
7545;SDS011;3814;51.454;12.616;2022-12-01T07:12:51;122.80;;;16.48;;
7545;SDS011;3814;51.454;12.616;2022-12-01T07:15:17;71.68;;;14.30;;
7545;SDS011;3814;51.454;12.616;2022-12-01T08:12:13;69.68;;;15.00;;
7545;SDS011;3814;51.454;12.616;2022-12-01T08:19:51;81.75;;;15.43;;
7545;SDS011;3814;51.454;12.616;2022-12-01T08:25:42;75.75;;;15.63;;
7545;SDS011;3814;51.454;12.616;2022-12-01T08:28:07;82.32;;;15.13;;
7545;SDS011;3814;51.454;12.616;2022-12-01T08:30:45;73.15;;;13.88;;
7545;SDS011;3814;51.454;12.616;2022-12-01T08:33:19;70.32;;;14.30;;
7545;SDS011;3814;51.454;12.616;2022-12-01T08:36:01;68.07;;;14.15;;
7545;SDS011;3814;51.454;12.616;2022-12-01T08:38:52;80.38;;;14.68;;
7545;SDS011;3814;51.454;12.616;2022-12-01T08:41:18;87.55;;;16.70;;
7545;SDS011;3814;51.454;12.616;2022-12-01T08:43:49;82.40;;;15.52;;
7545;SDS011;3814;51.454;12.616;2022-12-01T08:46:20;75.07;;;17.02;;
7545;SDS011;3814;51.454;12.616;2022-12-01T08:48:45;86.45;;;16.15;;
7545;SDS011;3814;51.454;12.616;2022-12-01T08:51:12;86.68;;;16.67;;
7545;SDS011;3814;51.454;12.616;2022-12-01T08:53:47;96.63;;;17.02;;
7545;SDS011;3814;51.454;12.616;2022-12-01T08:56:16;74.93;;;15.52;;
7545;SDS011;3814;51.454;12.616;2022-12-01T08:58:41;80.05;;;17.52;;
7545;SDS011;3814;51.454;12.616;2022-12-01T09:01:11;104.68;;;18.70;;
7545;SDS011;3814;51.454;12.616;2022-12-01T09:52:49;84.90;;;16.98;;
7545;SDS011;3814;51.454;12.616;2022-12-01T09:55:17;65.15;;;13.77;;
7545;SDS011;3814;51.454;12.616;2022-12-01T09:57:46;76.13;;;17.00;;
7545;SDS011;3814;51.454;12.616;2022-12-01T11:43:13;83.50;;;18.98;;
7545;SDS011;3814;51.454;12.616;2022-12-01T11:45:48;80.40;;;19.27;;
7545;SDS011;3814;51.454;12.616;2022-12-01T11:48:21;83.70;;;20.92;;
7545;SDS011;3814;51.454;12.616;2022-12-01T11:51:23;77.15;;;17.85;;
7545;SDS011;3814;51.454;12.616;2022-12-01T11:54:03;81.72;;;20.08;;
7545;SDS011;3814;51.454;12.616;2022-12-01T11:56:39;85.20;;;20.15;;
7545;SDS011;3814;51.454;12.616;2022-12-01T11:59:09;68.00;;;16.48;;
7545;SDS011;3814;51.454;12.616;2022-12-01T12:20:33;67.25;;;16.25;;
7545;SDS011;3814;51.454;12.616;2022-12-01T12:28:26;76.03;;;18.38;;
7545;SDS011;3814;51.454;12.616;2022-12-01T13:17:52;79.40;;;18.48;;
7545;SDS011;3814;51.454;12.616;2022-12-01T15:03:48;67.10;;;18.10;;
7545;SDS011;3814;51.454;12.616;2022-12-01T15:06:22;71.65;;;19.85;;
7545;SDS011;3814;51.454;12.616;2022-12-01T15:11:34;78.65;;;20.85;;
7545;SDS011;3814;51.454;12.616;2022-12-01T15:14:00;77.18;;;17.55;;
7545;SDS011;3814;51.454;12.616;2022-12-01T15:16:29;76.03;;;18.75;;
7545;SDS011;3814;51.454;12.616;2022-12-01T15:18:56;70.15;;;18.08;;
7545;SDS011;3814;51.454;12.616;2022-12-01T15:21:25;69.38;;;16.98;;
7545;SDS011;3814;51.454;12.616;2022-12-01T15:24:05;83.43;;;20.98;;
7545;SDS011;3814;51.454;12.616;2022-12-01T15:26:49;79.60;;;19.50;;
7545;SDS011;3814;51.454;12.616;2022-12-01T15:29:17;74.40;;;19.92;;
7545;SDS011;3814;51.454;12.616;2022-12-01T15:31:54;80.60;;;19.75;;
7545;SDS011;3814;51.454;12.616;2022-12-01T15:34:23;73.55;;;18.33;;
7545;SDS011;3814;51.454;12.616;2022-12-01T15:36:52;68.80;;;17.58;;
7545;SDS011;3814;51.454;12.616;2022-12-01T15:39:19;75.05;;;18.77;;
7545;SDS011;3814;51.454;12.616;2022-12-01T15:41:56;74.13;;;19.25;;
7545;SDS011;3814;51.454;12.616;2022-12-01T15:44:27;76.57;;;19.75;;
7545;SDS011;3814;51.454;12.616;2022-12-01T15:46:54;80.22;;;18.92;;
7545;SDS011;3814;51.454;12.616;2022-12-01T15:49:23;76.85;;;19.83;;
7545;SDS011;3814;51.454;12.616;2022-12-01T15:51:53;75.35;;;19.95;;
7545;SDS011;3814;51.454;12.616;2022-12-01T15:54:20;83.00;;;21.40;;
7545;SDS011;3814;51.454;12.616;2022-12-01T15:56:53;71.63;;;18.17;;
7545;SDS011;3814;51.454;12.616;2022-12-01T16:01:54;83.60;;;20.20;;
7545;SDS011;3814;51.454;12.616;2022-12-01T16:04:22;85.25;;;20.77;;
7545;SDS011;3814;51.454;12.616;2022-12-01T16:06:57;82.28;;;21.00;;
7545;SDS011;3814;51.454;12.616;2022-12-01T16:09:25;82.32;;;20.73;;
7545;SDS011;3814;51.454;12.616;2022-12-01T16:12:23;79.82;;;21.40;;
7545;SDS011;3814;51.454;12.616;2022-12-01T16:17:42;81.35;;;20.15;;
7545;SDS011;3814;51.454;12.616;2022-12-01T16:23:14;74.22;;;19.38;;
7545;SDS011;3814;51.454;12.616;2022-12-01T16:25:40;81.05;;;20.67;;
7545;SDS011;3814;51.454;12.616;2022-12-01T16:28:21;73.10;;;19.48;;
7545;SDS011;3814;51.454;12.616;2022-12-01T16:30:48;81.20;;;20.85;;
7545;SDS011;3814;51.454;12.616;2022-12-01T16:33:15;79.60;;;21.05;;
7545;SDS011;3814;51.454;12.616;2022-12-01T16:35:42;78.68;;;22.40;;
7545;SDS011;3814;51.454;12.616;2022-12-01T16:38:12;75.95;;;20.50;;
7545;SDS011;3814;51.454;12.616;2022-12-01T16:40:43;78.38;;;20.92;;
7545;SDS011;3814;51.454;12.616;2022-12-01T16:43:13;75.80;;;20.25;;
7545;SDS011;3814;51.454;12.616;2022-12-01T16:45:39;76.35;;;20.23;;
7545;SDS011;3814;51.454;12.616;2022-12-01T16:48:04;76.05;;;18.92;;
7545;SDS011;3814;51.454;12.616;2022-12-01T16:50:30;75.22;;;19.38;;
7545;SDS011;3814;51.454;12.616;2022-12-01T16:52:55;76.43;;;19.77;;
7545;SDS011;3814;51.454;12.616;2022-12-01T16:55:26;81.30;;;20.10;;
7545;SDS011;3814;51.454;12.616;2022-12-01T16:58:10;81.88;;;20.85;;
7545;SDS011;3814;51.454;12.616;2022-12-01T17:00:35;76.05;;;19.50;;
7545;SDS011;3814;51.454;12.616;2022-12-01T17:03:01;75.95;;;20.85;;
7545;SDS011;3814;51.454;12.616;2022-12-01T17:05:26;79.05;;;20.90;;
7545;SDS011;3814;51.454;12.616;2022-12-01T17:07:51;76.45;;;20.65;;
7545;SDS011;3814;51.454;12.616;2022-12-01T17:10:17;75.63;;;20.23;;
7545;SDS011;3814;51.454;12.616;2022-12-01T17:12:42;70.82;;;18.30;;
7545;SDS011;3814;51.454;12.616;2022-12-01T17:15:08;67.20;;;17.70;;
7545;SDS011;3814;51.454;12.616;2022-12-01T17:17:34;70.28;;;19.05;;
7545;SDS011;3814;51.454;12.616;2022-12-01T17:20:00;67.88;;;18.17;;
7545;SDS011;3814;51.454;12.616;2022-12-01T17:22:25;75.85;;;19.77;;
7545;SDS011;3814;51.454;12.616;2022-12-01T17:24:50;81.10;;;19.23;;
7545;SDS011;3814;51.454;12.616;2022-12-01T17:27:16;83.70;;;20.88;;
7545;SDS011;3814;51.454;12.616;2022-12-01T17:29:41;85.55;;;22.17;;
7545;SDS011;3814;51.454;12.616;2022-12-01T17:32:06;81.13;;;21.55;;
7545;SDS011;3814;51.454;12.616;2022-12-01T17:34:34;84.85;;;22.02;;
7545;SDS011;3814;51.454;12.616;2022-12-01T17:37:00;73.80;;;20.52;;
7545;SDS011;3814;51.454;12.616;2022-12-01T17:39:25;80.47;;;21.33;;
7545;SDS011;3814;51.454;12.616;2022-12-01T17:41:52;80.07;;;20.75;;
7545;SDS011;3814;51.454;12.616;2022-12-01T17:44:18;85.28;;;20.75;;
7545;SDS011;3814;51.454;12.616;2022-12-01T17:46:43;87.80;;;21.98;;
7545;SDS011;3814;51.454;12.616;2022-12-01T17:49:09;79.95;;;21.13;;
7545;SDS011;3814;51.454;12.616;2022-12-01T17:51:35;81.75;;;20.00;;
7545;SDS011;3814;51.454;12.616;2022-12-01T17:54:00;88.28;;;23.52;;
7545;SDS011;3814;51.454;12.616;2022-12-01T17:56:26;91.30;;;22.67;;
7545;SDS011;3814;51.454;12.616;2022-12-01T17:58:51;84.38;;;21.02;;
7545;SDS011;3814;51.454;12.616;2022-12-01T18:01:17;77.47;;;18.90;;
7545;SDS011;3814;51.454;12.616;2022-12-01T18:03:43;83.50;;;21.63;;
7545;SDS011;3814;51.454;12.616;2022-12-01T18:06:09;83.60;;;20.80;;
7545;SDS011;3814;51.454;12.616;2022-12-01T18:08:35;87.80;;;22.35;;
7545;SDS011;3814;51.454;12.616;2022-12-01T18:11:01;76.40;;;19.83;;
7545;SDS011;3814;51.454;12.616;2022-12-01T18:13:33;89.20;;;21.98;;
7545;SDS011;3814;51.454;12.616;2022-12-01T18:16:06;84.68;;;21.85;;
7545;SDS011;3814;51.454;12.616;2022-12-01T18:18:32;88.00;;;22.70;;
7545;SDS011;3814;51.454;12.616;2022-12-01T18:20:58;75.85;;;18.85;;
7545;SDS011;3814;51.454;12.616;2022-12-01T18:23:23;89.00;;;22.15;;
7545;SDS011;3814;51.454;12.616;2022-12-01T18:25:49;86.72;;;21.88;;
7545;SDS011;3814;51.454;12.616;2022-12-01T18:28:14;95.28;;;24.52;;
7545;SDS011;3814;51.454;12.616;2022-12-01T18:30:39;82.47;;;21.98;;
7545;SDS011;3814;51.454;12.616;2022-12-01T18:33:05;78.30;;;20.42;;
7545;SDS011;3814;51.454;12.616;2022-12-01T18:38:04;88.45;;;21.15;;
7545;SDS011;3814;51.454;12.616;2022-12-01T18:40:29;76.80;;;21.08;;
7545;SDS011;3814;51.454;12.616;2022-12-01T18:42:55;88.30;;;22.50;;
7545;SDS011;3814;51.454;12.616;2022-12-01T18:45:20;82.15;;;20.85;;
7545;SDS011;3814;51.454;12.616;2022-12-01T18:47:45;85.28;;;23.25;;
7545;SDS011;3814;51.454;12.616;2022-12-01T18:50:11;82.53;;;20.02;;
7545;SDS011;3814;51.454;12.616;2022-12-01T18:52:36;88.03;;;21.67;;
7545;SDS011;3814;51.454;12.616;2022-12-01T18:55:02;81.38;;;22.05;;
7545;SDS011;3814;51.454;12.616;2022-12-01T18:57:27;84.75;;;22.02;;
7545;SDS011;3814;51.454;12.616;2022-12-01T18:59:53;82.65;;;21.90;;
7545;SDS011;3814;51.454;12.616;2022-12-01T19:02:18;90.55;;;22.40;;
7545;SDS011;3814;51.454;12.616;2022-12-01T19:04:43;87.78;;;21.17;;
7545;SDS011;3814;51.454;12.616;2022-12-01T19:07:09;79.32;;;19.63;;
7545;SDS011;3814;51.454;12.616;2022-12-01T19:09:34;83.47;;;21.55;;
7545;SDS011;3814;51.454;12.616;2022-12-01T19:11:59;76.72;;;19.52;;
7545;SDS011;3814;51.454;12.616;2022-12-01T19:14:26;79.75;;;20.70;;
7545;SDS011;3814;51.454;12.616;2022-12-01T19:16:52;78.18;;;19.75;;
7545;SDS011;3814;51.454;12.616;2022-12-01T19:19:18;88.57;;;22.10;;
7545;SDS011;3814;51.454;12.616;2022-12-01T19:21:44;82.57;;;20.10;;
7545;SDS011;3814;51.454;12.616;2022-12-01T19:24:09;82.22;;;21.48;;
7545;SDS011;3814;51.454;12.616;2022-12-01T19:26:35;81.15;;;21.73;;
7545;SDS011;3814;51.454;12.616;2022-12-01T19:29:00;86.03;;;22.10;;
7545;SDS011;3814;51.454;12.616;2022-12-01T19:31:26;85.13;;;22.13;;
7545;SDS011;3814;51.454;12.616;2022-12-01T19:33:51;82.10;;;20.95;;
7545;SDS011;3814;51.454;12.616;2022-12-01T19:38:54;88.90;;;23.55;;
7545;SDS011;3814;51.454;12.616;2022-12-01T19:41:21;85.28;;;21.73;;
7545;SDS011;3814;51.454;12.616;2022-12-01T19:43:49;81.93;;;22.02;;
7545;SDS011;3814;51.454;12.616;2022-12-01T19:46:17;84.60;;;21.13;;
7545;SDS011;3814;51.454;12.616;2022-12-01T19:48:44;88.38;;;21.40;;
7545;SDS011;3814;51.454;12.616;2022-12-01T19:51:20;80.60;;;21.35;;
7545;SDS011;3814;51.454;12.616;2022-12-01T19:53:50;74.38;;;19.55;;
7545;SDS011;3814;51.454;12.616;2022-12-01T19:56:16;77.65;;;20.05;;
7545;SDS011;3814;51.454;12.616;2022-12-01T19:58:41;75.32;;;18.67;;
7545;SDS011;3814;51.454;12.616;2022-12-01T20:03:49;73.47;;;18.85;;
7545;SDS011;3814;51.454;12.616;2022-12-01T20:06:19;72.78;;;19.60;;
7545;SDS011;3814;51.454;12.616;2022-12-01T20:08:49;72.93;;;20.48;;
7545;SDS011;3814;51.454;12.616;2022-12-01T20:11:15;81.22;;;20.77;;
7545;SDS011;3814;51.454;12.616;2022-12-01T20:13:41;75.10;;;20.25;;
7545;SDS011;3814;51.454;12.616;2022-12-01T20:16:18;73.30;;;19.67;;
7545;SDS011;3814;51.454;12.616;2022-12-01T20:18:45;76.63;;;19.27;;
7545;SDS011;3814;51.454;12.616;2022-12-01T20:21:12;67.00;;;19.40;;
7545;SDS011;3814;51.454;12.616;2022-12-01T20:23:45;79.47;;;21.23;;
7545;SDS011;3814;51.454;12.616;2022-12-01T20:26:12;74.97;;;18.98;;
7545;SDS011;3814;51.454;12.616;2022-12-01T20:28:38;72.10;;;19.13;;
7545;SDS011;3814;51.454;12.616;2022-12-01T20:31:08;70.15;;;18.90;;
7545;SDS011;3814;51.454;12.616;2022-12-01T20:33:35;74.25;;;18.83;;
7545;SDS011;3814;51.454;12.616;2022-12-01T20:36:01;69.72;;;18.85;;
7545;SDS011;3814;51.454;12.616;2022-12-01T20:38:26;72.65;;;18.52;;
7545;SDS011;3814;51.454;12.616;2022-12-01T20:40:52;71.88;;;19.23;;
7545;SDS011;3814;51.454;12.616;2022-12-01T20:43:17;74.25;;;18.52;;
7545;SDS011;3814;51.454;12.616;2022-12-01T20:45:43;71.55;;;17.63;;
7545;SDS011;3814;51.454;12.616;2022-12-01T20:48:09;74.35;;;19.48;;
7545;SDS011;3814;51.454;12.616;2022-12-01T20:50:34;72.82;;;18.65;;
7545;SDS011;3814;51.454;12.616;2022-12-01T20:53:00;74.90;;;20.58;;
7545;SDS011;3814;51.454;12.616;2022-12-01T20:55:25;71.65;;;17.95;;
7545;SDS011;3814;51.454;12.616;2022-12-01T20:57:51;78.13;;;19.88;;
7545;SDS011;3814;51.454;12.616;2022-12-01T21:00:16;74.18;;;19.08;;
7545;SDS011;3814;51.454;12.616;2022-12-01T21:02:42;80.20;;;20.60;;
7545;SDS011;3814;51.454;12.616;2022-12-01T21:05:08;79.63;;;20.85;;
7545;SDS011;3814;51.454;12.616;2022-12-01T21:07:34;70.97;;;19.67;;
7545;SDS011;3814;51.454;12.616;2022-12-01T21:09:59;69.47;;;19.30;;
7545;SDS011;3814;51.454;12.616;2022-12-01T21:12:26;74.95;;;19.33;;
7545;SDS011;3814;51.454;12.616;2022-12-01T21:15:19;70.85;;;18.88;;
7545;SDS011;3814;51.454;12.616;2022-12-01T21:17:51;80.63;;;22.20;;
7545;SDS011;3814;51.454;12.616;2022-12-01T21:20:27;76.20;;;20.20;;
7545;SDS011;3814;51.454;12.616;2022-12-01T21:22:52;73.20;;;19.58;;
7545;SDS011;3814;51.454;12.616;2022-12-01T21:25:20;73.05;;;18.75;;
7545;SDS011;3814;51.454;12.616;2022-12-01T21:27:47;73.80;;;20.05;;
7545;SDS011;3814;51.454;12.616;2022-12-01T21:30:22;82.57;;;21.42;;
7545;SDS011;3814;51.454;12.616;2022-12-01T21:32:52;70.88;;;18.30;;
7545;SDS011;3814;51.454;12.616;2022-12-01T21:35:21;69.97;;;18.85;;
7545;SDS011;3814;51.454;12.616;2022-12-01T21:37:58;74.75;;;20.42;;
7545;SDS011;3814;51.454;12.616;2022-12-01T21:40:25;65.88;;;18.20;;
7545;SDS011;3814;51.454;12.616;2022-12-01T21:42:51;71.43;;;18.58;;
7545;SDS011;3814;51.454;12.616;2022-12-01T21:45:18;71.80;;;19.13;;
7545;SDS011;3814;51.454;12.616;2022-12-01T21:47:48;70.53;;;20.05;;
7545;SDS011;3814;51.454;12.616;2022-12-01T21:50:15;76.80;;;20.60;;
7545;SDS011;3814;51.454;12.616;2022-12-01T21:52:45;69.05;;;20.42;;
7545;SDS011;3814;51.454;12.616;2022-12-01T22:05:37;74.57;;;19.38;;
7545;SDS011;3814;51.454;12.616;2022-12-01T22:16:20;75.05;;;19.17;;
7545;SDS011;3814;51.454;12.616;2022-12-01T22:18:48;71.30;;;18.95;;
7545;SDS011;3814;51.454;12.616;2022-12-01T22:23:58;74.63;;;19.20;;
7545;SDS011;3814;51.454;12.616;2022-12-01T22:26:26;73.10;;;18.63;;
7545;SDS011;3814;51.454;12.616;2022-12-01T22:28:53;76.75;;;20.13;;
7545;SDS011;3814;51.454;12.616;2022-12-01T22:31:21;68.28;;;18.48;;